Bookmark and Share
Track history (hours):
 

Gan-dignity

Last reported at 2012-Nov-08 00:24 UTC. Time now 2014-Apr-20 03:19 UTC.
Position N 37°55' E 009°32'.
Warning: this ship's position is years out of date!

Length 250 m; draft 8.4 m.

Type: Tanker. MMSI: 636014270.

NotesDate/timePositionNaut miles runAvg speedWind from/ knotsBaromVisibWave heightAir tempDewpointWater temp
2012-Nov-08 00:24N 37°55' E 009°32'  
2012-Nov-04 14:34N 38°26' W 010°02'1312.5
2012-Nov-04 13:33N 38°38' W 010°06'1312.4
2012-Nov-04 12:33N 38°51' W 010°06'  
2012-Nov-02 06:23N 49°34' W 004°04'1111.0
2012-Nov-02 05:25N 49°39' W 003°50'1111.8
2012-Nov-02 04:29N 49°45' W 003°35'1312.6
2012-Nov-02 03:26N 49°51' W 003°18'1513.7
2012-Nov-02 02:23N 49°59' W 002°58'1113.4
2012-Nov-02 01:33N 50°02' W 002°42'1412.6
2012-Nov-02 00:27N 50°06' W 002°21'1110.8
2012-Nov-01 23:24N 50°09' W 002°04'8 9.7
2012-Nov-01 22:33N 50°11' W 001°51'8211.6
2012-Nov-01 15:30N 50°33' E 000°13'1213.1
2012-Nov-01 14:33N 50°35' E 000°32'1212.0
2012-Nov-01 13:32N 50°42' E 000°47'1111.1
2012-Nov-01 12:33N 50°49' E 001°01'2211.3
2012-Nov-01 10:36N 51°04' E 001°27'1413.5
2012-Nov-01 09:33N 51°13' E 001°45'1514.8
2012-Nov-01 08:33N 51°25' E 001°57'1513.7
2012-Nov-01 07:29N 51°36' E 002°13'6210.5
2012-Nov-01 01:32N 52°03' E 003°44'1010.0
2012-Nov-01 00:33N 52°01' E 003°59'7 0.6
2012-Oct-31 13:29N 51°57' E 004°08'0 0.0
2012-Oct-31 11:31N 51°57' E 004°08'0 0.0
2012-Oct-31 08:28N 51°57' E 004°08'0 0.0
2012-Oct-30 12:28N 51°57' E 004°08'0 0.0
2012-Oct-29 14:34N 51°57' E 004°08'3 3.0
2012-Oct-29 13:33N 51°56' E 004°12'0 0.5
2012-Oct-29 12:33N 51°55' E 004°13'0 0.0
2012-Oct-29 11:33N 51°55' E 004°13'0 0.0
2012-Oct-29 10:36N 51°55' E 004°13'0 0.0
2012-Oct-29 09:30N 51°55' E 004°13'0 0.0
2012-Oct-29 07:30N 51°55' E 004°13'0 0.0
2012-Oct-29 06:30N 51°55' E 004°13'0 0.0
2012-Oct-29 05:24N 51°55' E 004°13'0 0.0
2012-Oct-29 04:36N 51°55' E 004°13'0 0.0
2012-Oct-29 03:30N 51°55' E 004°13'0 0.0
2012-Oct-29 02:30N 51°55' E 004°13'0 0.0
2012-Oct-29 01:30N 51°55' E 004°13'0 0.0
2012-Oct-29 00:30N 51°55' E 004°13'  

Dump ship's entire track history

sailing weather and tide predictions

Gan-dignity — A8SQ3 — position and weather